Time;durP1;ratioP1;P1;durP2;ratioP2;P2;SDS_P1;SDS_P2;PMS_P1;PMS_P2;Temp;Humidity;BMP_temperature;BMP_pressure;BME280_temperature;BME280_humidity;BME280_pressure;Samples;Min_cycle;Max_cycle;Signal;HPM_P1;HPM_P2
2021/12/05 00:16:52;;;;;;;28.33;14.93;;;;;;;3.69;100.00;99674.84;5051696;28;20210;-85
2021/12/05 00:23:39;;;;;;;46.50;18.33;;;;;;;3.99;100.00;99676.78;5017649;28;20218;-79
2021/12/05 00:26:10;;;;;;;45.27;18.17;;;;;;;3.93;100.00;99688.50;5017157;28;20196;-77
2021/12/05 00:29:03;;;;;;;37.93;17.30;;;;;;;3.97;100.00;99687.81;5050392;28;20214;-82
2021/12/05 00:31:49;;;;;;;36.63;17.77;;;;;;;3.80;100.00;99642.78;5071308;28;20318;-77
2021/12/05 00:57:14;;;;;;;33.57;17.13;;;;;;;3.60;100.00;99638.66;5074299;28;20740;-81
2021/12/05 01:00:11;;;;;;;31.10;16.67;;;;;;;3.67;100.00;99667.13;5074459;28;20205;-85
2021/12/05 01:05:50;;;;;;;33.37;18.73;;;;;;;3.56;100.00;99662.41;5072041;28;20202;-81
2021/12/05 01:13:56;;;;;;;24.03;12.27;;;;;;;3.17;100.00;99624.31;5071931;28;20253;-79
2021/12/05 01:16:25;;;;;;;26.97;14.13;;;;;;;3.17;100.00;99624.31;5073746;28;20635;-78
2021/12/05 01:18:52;;;;;;;23.87;13.77;;;;;;;3.40;100.00;99626.00;5073538;28;20286;-79
2021/12/05 01:21:23;;;;;;;27.50;13.83;;;;;;;3.38;100.00;99632.75;5073910;28;20217;-78
2021/12/05 01:23:58;;;;;;;24.20;13.20;;;;;;;3.01;100.00;99555.41;5073959;28;20783;-82
2021/12/05 01:26:30;;;;;;;23.17;13.40;;;;;;;3.41;100.00;99634.56;5073534;28;20281;-78
2021/12/05 01:31:49;;;;;;;23.87;13.47;;;;;;;3.53;100.00;99632.44;5071713;28;20325;-78
2021/12/05 01:34:29;;;;;;;22.77;12.83;;;;;;;3.55;100.00;99628.22;5073634;28;20289;-79
2021/12/05 01:37:07;;;;;;;25.40;13.27;;;;;;;3.28;100.00;99584.53;5072999;28;20274;-79
2021/12/05 01:39:49;;;;;;;23.27;12.90;;;;;;;3.59;100.00;99618.97;5073323;28;20632;-81
2021/12/05 01:45:27;;;;;;;26.67;12.27;;;;;;;3.37;100.00;99602.81;5073284;28;20195;-77
2021/12/05 01:51:18;;;;;;;20.30;11.87;;;;;;;3.30;100.00;99585.50;5072552;28;20688;-81
2021/12/05 01:54:06;;;;;;;18.27;10.57;;;;;;;3.45;100.00;99609.09;5073131;28;20197;-80
2021/12/05 01:56:53;;;;;;;18.10;10.63;;;;;;;3.02;100.00;99563.97;5073122;28;20218;-83
2021/12/05 01:59:31;;;;;;;25.47;12.20;;;;;;;3.31;100.00;99607.75;5072039;28;20202;-86
2021/12/05 02:08:01;;;;;;;19.43;11.97;;;;;;;3.49;100.00;99618.66;5046678;28;20206;-81
2021/12/05 02:10:58;;;;;;;23.13;11.03;;;;;;;3.08;100.00;99549.69;5072545;28;20187;-81
2021/12/05 02:16:39;;;;;;;19.50;10.97;;;;;;;3.40;100.00;99626.00;5071757;28;20206;-78
2021/12/05 02:33:04;;;;;;;35.57;12.63;;;;;;;3.47;100.00;99619.38;5073535;28;20605;-84
2021/12/05 02:35:41;;;;;;;27.30;12.40;;;;;;;3.33;100.00;99623.16;5072270;28;20252;-81
2021/12/05 02:38:32;;;;;;;73.60;13.77;;;;;;;3.13;100.00;99613.88;5071819;28;20194;-81
2021/12/05 02:41:10;;;;;;;39.73;12.67;;;;;;;3.31;100.00;99615.44;5052706;28;20199;-79
2021/12/05 02:43:40;;;;;;;23.93;11.80;;;;;;;3.35;100.00;99622.38;5052107;28;20686;-81
2021/12/05 02:46:10;;;;;;;60.80;14.80;;;;;;;3.02;100.00;99593.00;5052140;28;20199;-81
2021/12/05 02:48:37;;;;;;;30.23;13.03;;;;;;;2.88;100.00;99614.66;5052325;28;20587;-76
2021/12/05 02:51:07;;;;;;;19.87;11.80;;;;;;;3.06;100.00;99622.16;5052362;28;20227;-80
2021/12/05 02:53:40;;;;;;;21.10;11.13;;;;;;;3.09;100.00;99612.91;5052378;28;20195;-79
2021/12/05 02:56:08;;;;;;;26.43;12.77;;;;;;;3.13;100.00;99614.75;5052497;28;20245;-81
2021/12/05 02:58:40;;;;;;;19.00;10.07;;;;;;;2.96;100.00;99600.47;5051692;28;20192;-83
2021/12/05 03:01:15;;;;;;;26.17;12.73;;;;;;;3.15;100.00;99618.22;5052266;28;20195;-81
2021/12/05 03:03:42;;;;;;;28.27;14.13;;;;;;;3.20;100.00;99605.59;5052376;28;20252;-79
2021/12/05 03:06:16;;;;;;;30.57;14.70;;;;;;;3.22;100.00;99615.06;5051851;28;20229;-79
2021/12/05 03:08:45;;;;;;;29.73;15.83;;;;;;;3.30;100.00;99618.81;5051290;28;20224;-82
2021/12/05 03:11:12;;;;;;;28.73;13.40;;;;;;;2.93;100.00;99593.53;5051760;28;20215;-79
2021/12/05 03:13:40;;;;;;;63.37;15.97;;;;;;;3.18;100.00;99623.47;5051851;28;20195;-79
2021/12/05 03:16:09;;;;;;;51.87;14.80;;;;;;;3.18;100.00;99613.22;5059759;28;20229;-82
2021/12/05 03:18:36;;;;;;;31.53;15.70;;;;;;;3.29;100.00;99608.47;5071471;28;20613;-80
2021/12/05 03:21:04;;;;;;;32.10;16.20;;;;;;;3.42;100.00;99611.53;5071510;28;20222;-76
2021/12/05 03:23:32;;;;;;;36.43;17.43;;;;;;;3.14;100.00;99555.00;5071560;28;20202;-76
2021/12/05 03:26:00;;;;;;;35.30;16.70;;;;;;;3.50;100.00;99620.38;5071609;28;20229;-78
2021/12/05 03:28:27;;;;;;;32.33;14.43;;;;;;;3.19;100.00;99620.09;5070156;28;20214;-77
2021/12/05 03:30:54;;;;;;;28.73;15.03;;;;;;;3.09;100.00;99605.22;5070631;28;20222;-82
2021/12/05 03:33:21;;;;;;;26.03;14.83;;;;;;;3.03;100.00;99611.81;5070674;28;20202;-78
2021/12/05 03:35:48;;;;;;;40.23;18.97;;;;;;;2.97;100.00;99617.56;5071074;28;20625;-82
2021/12/05 03:38:15;;;;;;;39.27;18.10;;;;;;;3.08;100.00;99595.78;5070643;28;20195;-79
2021/12/05 03:40:43;;;;;;;37.63;17.73;;;;;;;3.29;100.00;99624.72;5071282;28;20202;-76
2021/12/05 03:43:15;;;;;;;34.20;18.00;;;;;;;3.41;100.00;99620.06;5071588;28;20252;-81
2021/12/05 03:45:54;;;;;;;45.83;16.40;;;;;;;3.12;100.00;99613.00;5071078;28;20191;-78
2021/12/05 03:48:23;;;;;;;43.70;17.97;;;;;;;3.15;100.00;99619.91;5071414;28;20199;-78
2021/12/05 03:50:50;;;;;;;98.37;14.67;;;;;;;2.87;100.00;99598.44;5071217;28;20199;-83
2021/12/05 03:53:18;;;;;;;76.83;13.90;;;;;;;2.73;100.00;99580.81;5071359;28;20195;-81
2021/12/05 03:55:47;;;;;;;40.07;15.67;;;;;;;3.09;100.00;99630.81;5071521;28;20285;-84
2021/12/05 03:58:17;;;;;;;62.50;16.63;;;;;;;3.10;100.00;99634.25;5071595;28;20195;-81
2021/12/05 04:00:50;;;;;;;29.30;14.10;;;;;;;3.02;100.00;99636.53;5071027;28;20187;-81
2021/12/05 04:03:19;;;;;;;21.73;9.27;;;;;;;2.93;100.00;99621.69;5058001;28;20192;-83
2021/12/05 04:05:46;;;;;;;69.67;16.50;;;;;;;2.91;100.00;99632.69;5051362;28;20192;-80
2021/12/05 04:08:15;;;;;;;45.53;15.93;;;;;;;2.99;100.00;99636.41;5050531;28;20290;-81
2021/12/05 04:10:49;;;;;;;21.47;11.90;;;;;;;2.91;100.00;99640.38;5052650;28;20195;-84
2021/12/05 04:13:19;;;;;;;24.97;11.00;;;;;;;2.83;100.00;99614.47;5054961;28;20192;-76
2021/12/05 04:15:46;;;;;;;28.13;14.57;;;;;;;2.91;100.00;99638.69;5054750;28;20188;-79
2021/12/05 04:18:13;;;;;;;24.00;13.13;;;;;;;3.01;100.00;99624.53;5055277;28;20203;-83
2021/12/05 04:20:40;;;;;;;27.80;14.20;;;;;;;2.92;100.00;99588.38;5054733;28;20214;-76
2021/12/05 04:23:07;;;;;;;29.43;12.00;;;;;;;3.19;100.00;99625.22;5054713;28;20229;-78
2021/12/05 04:25:37;;;;;;;29.07;11.73;;;;;;;2.96;100.00;99618.38;5054959;28;20196;-82
2021/12/05 04:28:05;;;;;;;38.20;13.37;;;;;;;3.07;100.00;99618.78;5056482;28;20296;-81
2021/12/05 04:30:34;;;;;;;23.10;12.20;;;;;;;3.20;100.00;99620.97;5074721;28;20203;-83
2021/12/05 04:33:01;;;;;;;46.60;14.83;;;;;;;3.25;100.00;99630.56;5074411;28;20229;-79
2021/12/05 04:35:28;;;;;;;42.97;13.47;;;;;;;3.23;100.00;99637.31;5074924;28;20221;-79
2021/12/05 04:37:55;;;;;;;37.10;11.97;;;;;;;3.34;100.00;99635.16;5073719;28;20206;-77
2021/12/05 04:40:21;;;;;;;46.23;12.77;;;;;;;3.34;100.00;99636.03;5074617;28;20203;-79
2021/12/05 04:42:49;;;;;;;36.77;12.93;;;;;;;3.33;100.00;99628.28;5074422;28;20207;-83
2021/12/05 04:45:20;;;;;;;26.40;12.50;;;;;;;3.35;100.00;99637.75;5074459;28;20194;-78
2021/12/05 04:47:49;;;;;;;71.37;13.17;;;;;;;2.95;100.00;99598.72;5073995;28;20191;-85
2021/12/05 04:50:17;;;;;;;30.40;12.53;;;;;;;3.04;100.00;99629.75;5074257;28;20217;-77
2021/12/05 04:52:45;;;;;;;24.57;13.07;;;;;;;3.02;100.00;99616.03;5073753;28;20221;-82
2021/12/05 04:55:12;;;;;;;26.53;12.17;;;;;;;2.72;100.00;99579.03;5074534;28;20202;-79
2021/12/05 04:57:43;;;;;;;20.07;10.43;;;;;;;3.16;100.00;99637.03;5072668;28;20669;-82
2021/12/05 05:00:14;;;;;;;23.23;10.53;;;;;;;3.17;100.00;99637.09;5074242;28;20708;-78
2021/12/05 05:02:41;;;;;;;21.13;10.80;;;;;;;3.25;100.00;99640.78;5057522;28;20195;-75
2021/12/05 05:05:11;;;;;;;20.07;10.77;;;;;;;3.10;100.00;99632.56;5074005;28;20206;-82
2021/12/05 05:07:41;;;;;;;21.00;10.90;;;;;;;3.12;100.00;99628.38;5073252;28;20658;-79
2021/12/05 05:10:10;;;;;;;23.77;12.70;;;;;;;3.12;100.00;99643.72;5074349;28;20217;-84
2021/12/05 05:12:37;;;;;;;22.17;12.13;;;;;;;2.94;100.00;99610.63;5073690;28;20224;-79
2021/12/05 05:15:05;;;;;;;46.07;19.23;;;;;;;2.90;100.00;99636.94;5073869;28;20203;-81
2021/12/05 05:17:33;;;;;;;28.67;14.43;;;;;;;2.78;100.00;99643.28;5073880;28;20285;-80
2021/12/05 05:20:04;;;;;;;20.40;11.57;;;;;;;2.79;100.00;99650.13;5073968;28;20250;-82
2021/12/05 05:22:41;;;;;;;35.83;17.40;;;;;;;2.70;100.00;99649.78;5073394;28;20203;-80
2021/12/05 05:30:55;;;;;;;32.53;14.07;;;;;;;2.62;100.00;99612.78;5051511;28;20317;-78
2021/12/05 05:44:39;;;;;;;30.60;16.40;;;;;;;3.00;100.00;99645.81;5073854;28;20684;-77
2021/12/05 05:47:10;;;;;;;45.70;22.13;;;;;;;2.97;100.00;99628.66;5073703;28;20195;-80
2021/12/05 05:49:51;;;;;;;38.23;17.80;;;;;;;2.92;100.00;99637.88;5073563;28;20280;-80
2021/12/05 05:52:19;;;;;;;247.37;101.60;;;;;;;3.28;100.00;99658.84;5073506;28;20233;-78
2021/12/05 05:54:49;;;;;;;80.43;38.57;;;;;;;3.33;100.00;99657.34;5073428;28;20214;-79
2021/12/05 05:57:23;;;;;;;31.73;15.93;;;;;;;3.33;100.00;99654.78;5073134;28;20685;-81
2021/12/05 05:59:57;;;;;;;29.23;13.90;;;;;;;3.25;100.00;99645.91;5066352;28;20203;-81
2021/12/05 06:05:09;;;;;;;19.43;11.80;;;;;;;2.84;100.00;99595.75;5053036;28;20209;-82
2021/12/05 06:07:42;;;;;;;26.53;14.73;;;;;;;3.06;100.00;99623.03;5052307;28;20200;-77
2021/12/05 06:10:11;;;;;;;21.30;11.33;;;;;;;3.25;100.00;99647.59;5052738;28;20195;-79
2021/12/05 06:12:38;;;;;;;20.47;11.37;;;;;;;3.19;100.00;99653.38;5053280;28;20226;-78
2021/12/05 06:15:08;;;;;;;31.33;18.67;;;;;;;3.35;100.00;99657.41;5052817;28;20287;-76
2021/12/05 06:17:35;;;;;;;27.50;16.17;;;;;;;2.86;100.00;99596.66;5053023;28;20203;-78
2021/12/05 06:20:02;;;;;;;29.40;14.97;;;;;;;2.92;100.00;99660.06;5053846;28;20227;-79
2021/12/05 06:22:29;;;;;;;19.67;10.20;;;;;;;3.13;100.00;99650.63;5053669;28;20199;-77
2021/12/05 06:24:56;;;;;;;24.47;11.83;;;;;;;2.99;100.00;99662.03;5053304;28;20202;-76
2021/12/05 06:27:24;;;;;;;22.83;10.57;;;;;;;2.92;100.00;99665.16;5072879;28;20604;-82
2021/12/05 06:29:56;;;;;;;23.53;11.87;;;;;;;3.28;100.00;99658.84;5074081;28;20278;-73
2021/12/05 06:36:51;;;;;;;25.83;12.70;;;;;;;3.31;100.00;99670.91;5073917;28;20265;-79
2021/12/05 06:38:37;;;;;;;31.80;15.90;;;;;;;3.39;100.00;99649.84;5071323;28;20253;-80
2021/12/05 06:41:21;;;;;;;31.93;14.10;;;;;;;3.70;100.00;99679.16;5050370;28;20298;-78
2021/12/05 06:46:35;;;;;;;19.77;12.30;;;;;;;3.65;100.00;99712.31;5049067;28;20229;-79
2021/12/05 06:49:02;;;;;;;19.90;11.27;;;;;;;3.33;100.00;99695.75;5048763;28;20199;-82
2021/12/05 06:51:30;;;;;;;20.07;10.43;;;;;;;3.34;100.00;99702.63;5050206;28;20195;-82
2021/12/05 06:53:57;;;;;;;30.17;16.87;;;;;;;3.41;100.00;99709.75;5050823;28;20788;-79
2021/12/05 06:56:25;;;;;;;63.27;35.23;;;;;;;3.21;100.00;99710.66;5032446;28;20295;-80
2021/12/05 06:58:53;;;;;;;34.67;19.13;;;;;;;3.47;100.00;99709.94;5036434;28;20191;-76
2021/12/05 07:01:20;;;;;;;24.30;14.23;;;;;;;3.37;100.00;99686.50;5052142;28;20191;-78
2021/12/05 07:03:49;;;;;;;20.33;10.10;;;;;;;3.63;100.00;99707.97;5052079;28;20647;-80
2021/12/05 07:06:22;;;;;;;16.30;9.00;;;;;;;3.46;100.00;99697.09;5051918;28;20725;-78
2021/12/05 07:08:51;;;;;;;15.13;8.40;;;;;;;3.48;100.00;99695.44;5070994;28;20248;-80
2021/12/05 07:11:23;;;;;;;19.50;12.33;;;;;;;3.43;100.00;99691.84;5072192;28;20195;-79
2021/12/05 07:16:46;;;;;;;21.77;11.53;;;;;;;3.63;100.00;99656.69;5072580;28;20202;-81
2021/12/05 07:19:24;;;;;;;23.27;9.43;;;;;;;3.84;100.00;99678.84;5070166;28;20218;-80
2021/12/05 07:21:54;;;;;;;16.27;8.80;;;;;;;3.90;100.00;99680.72;5065410;28;20187;-80
2021/12/05 07:24:35;;;;;;;18.73;9.17;;;;;;;3.96;100.00;99686.06;5071779;28;20576;-81
2021/12/05 07:40:19;;;;;;;16.10;9.37;;;;;;;3.64;100.00;99632.81;5071032;28;20196;-80
2021/12/05 07:41:04;;;;;;;22.80;12.23;;;;;;;3.13;100.00;99612.19;5071631;28;20190;-78
2021/12/05 07:43:31;;;;;;;20.13;11.57;;;;;;;3.44;100.00;99629.53;5070997;28;20283;-81
2021/12/05 07:46:05;;;;;;;21.37;11.67;;;;;;;2.98;100.00;99575.78;5075116;28;20202;-80
2021/12/05 07:48:37;;;;;;;20.83;10.53;;;;;;;3.63;100.00;99669.50;5075244;28;20285;-79
2021/12/05 07:51:09;;;;;;;13.33;8.17;;;;;;;3.77;100.00;99674.31;5075832;28;20273;-81
2021/12/05 07:53:46;;;;;;;19.27;9.50;;;;;;;3.64;100.00;99671.25;5063829;28;20323;-80
2021/12/05 07:56:17;;;;;;;17.77;8.97;;;;;;;3.90;100.00;99678.16;5075634;28;20605;-80
2021/12/05 07:58:56;;;;;;;16.03;8.53;;;;;;;4.00;100.00;99682.78;5064696;28;20200;-80
2021/12/05 08:15:14;;;;;;;20.97;11.70;;;;;;;4.57;100.00;99688.09;5074682;28;20682;-79
2021/12/05 08:17:49;;;;;;;20.97;11.37;;;;;;;4.57;100.00;99641.88;5074920;28;20203;-82
2021/12/05 08:20:19;;;;;;;16.57;10.30;;;;;;;4.69;100.00;99693.63;5074365;28;20229;-79
2021/12/05 08:22:46;;;;;;;19.40;9.07;;;;;;;4.74;100.00;99692.97;5074174;28;20226;-78
2021/12/05 08:25:14;;;;;;;25.23;12.97;;;;;;;4.80;100.00;99698.31;5075143;28;20260;-76
2021/12/05 08:27:47;;;;;;;14.17;8.47;;;;;;;4.40;100.00;99696.13;5073703;28;20223;-80
2021/12/05 08:30:22;;;;;;;19.70;9.60;;;;;;;4.47;100.00;99704.91;5075099;28;20198;-82
2021/12/05 08:33:08;;;;;;;19.23;10.33;;;;;;;4.72;100.00;99704.88;5073893;28;20218;-83
2021/12/05 08:36:02;;;;;;;25.10;11.80;;;;;;;4.79;100.00;99693.09;5073897;28;20638;-81
2021/12/05 08:41:38;;;;;;;25.50;13.60;;;;;;;5.05;100.00;99714.47;5073820;28;20206;-79
2021/12/05 09:23:35;;;;;;;33.67;15.57;;;;;;;4.74;100.00;99656.16;5073840;28;20607;-81
2021/12/05 10:02:12;;;;;;;23.57;11.33;;;;;;;4.43;100.00;99631.19;5073867;28;20201;-80
2021/12/05 10:07:40;;;;;;;39.90;21.83;;;;;;;4.76;100.00;99590.28;5060178;28;20286;-78
2021/12/05 10:10:19;;;;;;;26.30;13.43;;;;;;;4.65;100.00;99638.75;5072307;28;20665;-77
2021/12/05 10:13:09;;;;;;;28.00;14.20;;;;;;;4.91;100.00;99637.00;5072611;28;20230;-82
2021/12/05 10:15:52;;;;;;;23.90;13.33;;;;;;;5.03;100.00;99627.06;5072444;28;20229;-80
2021/12/05 10:27:13;;;;;;;27.10;15.23;;;;;;;5.29;100.00;99614.97;5072233;28;20248;-80
2021/12/05 10:35:41;;;;;;;27.67;16.20;;;;;;;5.20;100.00;99618.16;5072198;28;20194;-78
2021/12/05 10:38:13;;;;;;;33.07;16.17;;;;;;;5.17;100.00;99607.81;5071652;28;20285;-78
2021/12/05 10:40:46;;;;;;;26.93;14.70;;;;;;;4.75;100.00;99601.38;5071724;28;20673;-79
2021/12/05 10:43:19;;;;;;;30.87;16.30;;;;;;;4.88;100.00;99606.09;5071923;28;20203;-77
2021/12/05 10:45:49;;;;;;;29.10;15.90;;;;;;;4.83;100.00;99605.06;5071732;28;20260;-78
2021/12/05 10:48:25;;;;;;;30.93;17.47;;;;;;;4.93;100.00;99591.66;5072249;28;20194;-82
2021/12/05 10:50:55;;;;;;;34.97;18.03;;;;;;;5.03;100.00;99603.94;5071645;28;20199;-79
2021/12/05 10:53:41;;;;;;;30.60;15.70;;;;;;;4.69;100.00;99601.22;5069110;28;20218;-78
2021/12/05 10:56:15;;;;;;;25.67;12.87;;;;;;;4.34;100.00;99592.44;5072110;28;20205;-79
2021/12/05 10:58:45;;;;;;;28.17;15.53;;;;;;;4.37;100.00;99595.97;5059492;28;20200;-80
2021/12/05 11:01:32;;;;;;;30.67;14.20;;;;;;;4.23;100.00;99583.50;5051853;28;20682;-79
2021/12/05 11:04:04;;;;;;;36.43;17.67;;;;;;;4.35;100.00;99579.63;5063437;28;20209;-81
2021/12/05 11:06:38;;;;;;;45.33;20.47;;;;;;;4.18;100.00;99559.38;5072012;28;20198;-78
2021/12/05 11:09:12;;;;;;;42.40;19.03;;;;;;;4.21;100.00;99568.06;5071053;28;20202;-78
2021/12/05 11:11:42;;;;;;;63.13;27.37;;;;;;;4.26;100.00;99542.56;5070794;28;20688;-81
2021/12/05 11:14:13;;;;;;;42.93;20.80;;;;;;;4.43;100.00;99547.38;5071584;28;20219;-82
2021/12/05 11:16:48;;;;;;;47.50;23.17;;;;;;;4.38;100.00;99554.09;5072026;28;20586;-78
2021/12/05 11:19:33;;;;;;;50.87;21.37;;;;;;;4.47;100.00;99562.06;5070835;28;20218;-79
2021/12/05 11:22:05;;;;;;;40.00;19.30;;;;;;;4.22;100.00;99558.66;5070043;28;20222;-79
2021/12/05 11:24:35;;;;;;;37.83;19.20;;;;;;;4.38;100.00;99548.94;5071765;28;20294;-79
2021/12/05 11:27:10;;;;;;;35.20;17.17;;;;;;;4.33;100.00;99521.38;5071796;28;20195;-81
2021/12/05 11:30:00;;;;;;;40.27;19.90;;;;;;;4.52;100.00;99530.53;5070415;28;20202;-80
2021/12/05 11:32:37;;;;;;;35.50;16.90;;;;;;;4.28;100.00;99536.63;5071471;28;20632;-79
2021/12/05 11:35:26;;;;;;;33.33;18.27;;;;;;;4.42;100.00;99539.66;5072217;28;20194;-77
2021/12/05 11:38:06;;;;;;;45.40;20.93;;;;;;;4.43;100.00;99531.97;5070919;28;20285;-75
2021/12/05 11:40:47;;;;;;;36.40;17.10;;;;;;;4.19;100.00;99526.09;5060068;28;20616;-77
2021/12/05 11:43:16;;;;;;;36.17;15.57;;;;;;;4.35;100.00;99512.06;5071857;28;20198;-81
2021/12/05 11:45:56;;;;;;;26.70;13.87;;;;;;;4.46;100.00;99515.78;5070661;28;20607;-76
2021/12/05 11:48:25;;;;;;;40.13;19.10;;;;;;;4.60;100.00;99509.41;5071265;28;20202;-81
2021/12/05 11:50:53;;;;;;;48.63;20.50;;;;;;;4.72;100.00;99508.84;5070541;28;20575;-79
2021/12/05 11:53:39;;;;;;;52.10;25.60;;;;;;;4.75;100.00;99509.81;5071167;28;20214;-79
2021/12/05 11:56:06;;;;;;;38.87;18.13;;;;;;;4.72;100.00;99509.72;5071631;28;20199;-80
2021/12/05 11:58:33;;;;;;;33.00;15.70;;;;;;;4.62;100.00;99505.16;5071067;28;20199;-79
2021/12/05 12:01:06;;;;;;;36.07;17.27;;;;;;;4.74;100.00;99502.97;5070697;28;20195;-79
2021/12/05 12:03:36;;;;;;;25.90;14.67;;;;;;;4.76;100.00;99500.41;5070653;28;20187;-83
2021/12/05 12:06:05;;;;;;;27.07;14.13;;;;;;;4.80;100.00;99503.13;5071296;28;20320;-79
2021/12/05 12:08:32;;;;;;;33.37;13.73;;;;;;;4.75;100.00;99503.81;5070364;28;20194;-83
2021/12/05 12:11:01;;;;;;;21.57;11.80;;;;;;;4.47;100.00;99503.03;5070703;28;20191;-82
2021/12/05 12:13:31;;;;;;;27.80;14.00;;;;;;;4.33;100.00;99506.88;5070478;28;20250;-80
2021/12/05 12:16:02;;;;;;;22.63;12.70;;;;;;;4.17;100.00;99502.13;5070900;28;20194;-78
2021/12/05 12:18:32;;;;;;;28.57;14.27;;;;;;;3.92;100.00;99502.16;5070800;28;20195;-79
2021/12/05 12:21:04;;;;;;;23.27;12.97;;;;;;;3.55;100.00;99466.78;5070087;28;20211;-78
2021/12/05 12:23:32;;;;;;;28.33;13.53;;;;;;;4.02;100.00;99480.22;5071073;28;20227;-78
2021/12/05 12:26:03;;;;;;;29.37;14.37;;;;;;;4.10;100.00;99483.91;5070812;28;20688;-83
2021/12/05 12:28:30;;;;;;;23.63;12.20;;;;;;;4.10;100.00;99492.47;5070799;28;20235;-80
2021/12/05 12:31:02;;;;;;;30.80;16.40;;;;;;;3.68;100.00;99434.72;5070686;28;20191;-79
2021/12/05 12:33:32;;;;;;;32.57;15.50;;;;;;;4.24;100.00;99506.59;5074121;28;20257;-84
2021/12/05 12:35:59;;;;;;;40.07;19.07;;;;;;;4.42;100.00;99506.28;5074291;28;20198;-80
2021/12/05 12:38:33;;;;;;;50.70;23.43;;;;;;;4.15;100.00;99421.66;5073443;28;20195;-79
2021/12/05 12:41:12;;;;;;;40.13;18.37;;;;;;;4.49;100.00;99496.22;5074432;28;20202;-80
2021/12/05 12:43:52;;;;;;;36.07;18.20;;;;;;;4.43;100.00;99496.06;5074132;28;20676;-77
2021/12/05 12:46:27;;;;;;;45.93;19.67;;;;;;;4.21;100.00;99496.22;5074261;28;20668;-77
2021/12/05 12:48:58;;;;;;;38.03;19.27;;;;;;;4.36;100.00;99494.13;5073825;28;20205;-80
2021/12/05 12:51:28;;;;;;;59.97;30.93;;;;;;;4.19;100.00;99490.19;5073701;28;20201;-79
2021/12/05 12:53:56;;;;;;;55.97;25.17;;;;;;;4.17;100.00;99484.16;5073604;28;20612;-79
2021/12/05 12:56:25;;;;;;;79.43;37.33;;;;;;;3.88;100.00;99429.41;5074020;28;20195;-82
2021/12/05 12:58:54;;;;;;;37.70;19.67;;;;;;;4.04;100.00;99478.56;5074074;28;20191;-78
2021/12/05 13:10:10;;;;;;;25.07;12.87;;;;;;;4.12;100.00;99475.44;5074018;28;20637;-80
2021/12/05 13:12:57;;;;;;;27.33;14.03;;;;;;;4.10;100.00;99466.84;5073922;28;20190;-81
2021/12/05 13:15:41;;;;;;;29.80;12.23;;;;;;;4.15;100.00;99466.94;5073933;28;20227;-79
2021/12/05 13:18:29;;;;;;;25.23;12.10;;;;;;;3.96;100.00;99432.19;5073523;28;20205;-79
2021/12/05 13:21:00;;;;;;;30.93;14.77;;;;;;;4.14;100.00;99450.69;5073374;28;20206;-80
2021/12/05 13:23:32;;;;;;;29.97;14.80;;;;;;;3.91;100.00;99433.75;5073554;28;20691;-80
2021/12/05 13:26:07;;;;;;;34.70;14.97;;;;;;;4.09;100.00;99454.81;5073630;28;20608;-81
2021/12/05 13:28:37;;;;;;;42.73;12.90;;;;;;;4.03;100.00;99446.09;5073544;28;20300;-80
2021/12/05 13:31:40;;;;;;;32.77;13.20;;;;;;;4.14;100.00;99463.50;5073051;28;20194;-82
2021/12/05 13:34:43;;;;;;;92.50;15.10;;;;;;;4.06;100.00;99461.56;5074063;28;20245;-78
2021/12/05 13:37:30;;;;;;;42.67;13.00;;;;;;;4.05;100.00;99465.81;5062563;28;20632;-79
2021/12/05 13:40:07;;;;;;;40.23;13.60;;;;;;;3.70;100.00;99451.03;5073475;28;20195;-77
2021/12/05 13:42:42;;;;;;;72.70;15.00;;;;;;;3.82;100.00;99471.91;5073416;28;20206;-79
2021/12/05 13:45:15;;;;;;;35.40;15.63;;;;;;;3.81;100.00;99459.94;5073414;28;20201;-78
2021/12/05 13:47:46;;;;;;;25.07;12.23;;;;;;;3.52;100.00;99458.13;5074144;28;20195;-78
2021/12/05 13:50:30;;;;;;;22.93;11.00;;;;;;;3.46;100.00;99466.50;5072072;28;20256;-79
2021/12/05 13:53:00;;;;;;;43.43;17.13;;;;;;;3.50;100.00;99469.19;5073457;28;20203;-79
2021/12/05 13:55:39;;;;;;;41.67;13.87;;;;;;;3.54;100.00;99447.09;5062889;28;20223;-78
2021/12/05 13:58:17;;;;;;;41.47;17.67;;;;;;;3.62;100.00;99448.22;5053224;28;20221;-82
2021/12/05 14:00:51;;;;;;;39.13;14.67;;;;;;;3.50;100.00;99414.50;5053615;28;20260;-83
2021/12/05 14:03:45;;;;;;;43.20;16.10;;;;;;;3.74;100.00;99456.31;5053251;28;20277;-82
2021/12/05 14:06:36;;;;;;;49.43;16.20;;;;;;;3.94;100.00;99464.59;5054135;28;20634;-80
2021/12/05 14:09:08;;;;;;;122.50;16.77;;;;;;;4.10;100.00;99459.13;5052802;28;20199;-80
2021/12/05 14:11:36;;;;;;;127.27;44.63;;;;;;;3.60;100.00;99420.81;5052804;28;20333;-81
2021/12/05 14:14:05;;;;;;;93.37;34.03;;;;;;;3.85;100.00;99451.50;5052961;28;20285;-79
2021/12/05 14:16:36;;;;;;;131.70;46.57;;;;;;;3.49;100.00;99452.09;5053190;28;20199;-77
2021/12/05 14:19:05;;;;;;;51.17;18.63;;;;;;;3.53;100.00;99452.19;5072478;28;20199;-78
2021/12/05 14:21:33;;;;;;;120.87;42.17;;;;;;;3.47;100.00;99447.72;5073210;28;20222;-80
2021/12/05 14:24:02;;;;;;;46.13;19.67;;;;;;;3.43;100.00;99446.75;5073040;28;20187;-79
2021/12/05 14:26:32;;;;;;;46.50;19.87;;;;;;;3.31;100.00;99438.66;5071917;28;20747;-79
2021/12/05 14:29:03;;;;;;;61.83;14.17;;;;;;;3.32;100.00;99455.75;5072505;28;20222;-78
2021/12/05 14:31:35;;;;;;;54.33;16.43;;;;;;;3.21;100.00;99451.97;5070945;28;20199;-79
2021/12/05 14:34:04;;;;;;;54.53;16.23;;;;;;;3.38;100.00;99453.41;5072034;28;20237;-78
2021/12/05 14:36:35;;;;;;;91.53;17.20;;;;;;;3.40;100.00;99438.97;5072497;28;20260;-76
2021/12/05 14:39:08;;;;;;;55.87;20.50;;;;;;;3.60;100.00;99451.56;5071700;28;20199;-77
2021/12/05 14:41:35;;;;;;;203.07;35.87;;;;;;;3.59;100.00;99452.38;5071313;28;20208;-77
2021/12/05 14:44:03;;;;;;;126.83;33.87;;;;;;;3.60;100.00;99460.13;5072410;28;20203;-80
2021/12/05 14:46:29;;;;;;;136.67;29.93;;;;;;;3.56;100.00;99440.34;5071624;28;20187;-76
2021/12/05 14:49:01;;;;;;;105.03;38.77;;;;;;;3.46;100.00;99431.47;5072007;28;20202;-76
2021/12/05 14:51:34;;;;;;;147.30;41.43;;;;;;;3.60;100.00;99443.88;5072500;28;20229;-77
2021/12/05 14:54:01;;;;;;;172.10;39.03;;;;;;;3.65;100.00;99442.31;5071584;28;20313;-79
2021/12/05 14:56:29;;;;;;;101.80;29.40;;;;;;;3.61;100.00;99441.34;5071788;28;20199;-77
2021/12/05 14:59:03;;;;;;;149.83;37.93;;;;;;;3.43;100.00;99422.81;5071873;28;20194;-79
2021/12/05 15:01:31;;;;;;;90.43;27.63;;;;;;;3.54;100.00;99433.41;5071229;28;20199;-75
2021/12/05 15:04:01;;;;;;;36.97;15.97;;;;;;;3.38;100.00;99434.63;5071796;28;20202;-77
2021/12/05 15:06:41;;;;;;;87.03;23.70;;;;;;;3.43;100.00;99440.75;5071774;28;20198;-79
2021/12/05 15:09:18;;;;;;;130.20;23.13;;;;;;;3.34;100.00;99441.31;5071447;28;20734;-78
2021/12/05 15:11:50;;;;;;;83.77;19.47;;;;;;;3.27;100.00;99448.75;5069179;28;20192;-77
2021/12/05 15:14:18;;;;;;;92.23;27.47;;;;;;;3.02;100.00;99393.28;5071846;28;20253;-76
2021/12/05 15:16:57;;;;;;;65.10;18.47;;;;;;;2.87;100.00;99410.69;5071177;28;20621;-77
2021/12/05 15:19:25;;;;;;;55.57;18.93;;;;;;;2.90;100.00;99431.25;5071189;28;20221;-78
2021/12/05 15:21:52;;;;;;;78.77;19.90;;;;;;;2.98;100.00;99446.06;5071591;28;20263;-78
2021/12/05 15:24:22;;;;;;;83.00;18.67;;;;;;;3.14;100.00;99438.94;5071535;28;20203;-77
2021/12/05 15:26:49;;;;;;;87.27;25.17;;;;;;;3.15;100.00;99436.41;5071719;28;20203;-77
2021/12/05 15:29:17;;;;;;;91.07;26.17;;;;;;;3.19;100.00;99434.81;5070990;28;20276;-78
2021/12/05 15:31:47;;;;;;;142.60;30.53;;;;;;;2.97;100.00;99384.56;5071485;28;20191;-77
2021/12/05 15:34:28;;;;;;;156.23;26.50;;;;;;;3.30;100.00;99431.78;5071728;28;20309;-78
2021/12/05 15:36:56;;;;;;;81.83;25.30;;;;;;;3.30;100.00;99433.47;5071126;28;20669;-77
2021/12/05 15:39:26;;;;;;;118.20;32.53;;;;;;;3.29;100.00;99427.47;5070569;28;20197;-77
2021/12/05 15:41:55;;;;;;;103.20;30.03;;;;;;;3.34;100.00;99435.31;5071367;28;20191;-77
2021/12/05 15:44:32;;;;;;;99.50;31.67;;;;;;;3.38;100.00;99453.41;5071205;28;20202;-79